Grizzly Air Cargo 5092


PHNL
Daniel K Inouye International Airport
Honolulu, Hawaii, US
PANC
Ted Stevens Anchorage International Airport
Anchorage, Alaska, US

Activity Log

Date Flight Route Aircraft Duration
No Flights Yet

Route Details

Aircraft Information
Primary: Boeing 767-300BDSF
Backup: Not Available
Route Data
Distance: 2413nm
Sched. Duration: 5h 25m
Avg. Duration: 0h 00m (-525m)
Times Flown: 0
Recm'd Route: MKK4 APACK 3000N/15600W 3500N/15600W 4000N/15600W 4500N/15500W 5000N/15400W 5500N/15300W ODK BAITT NEELL6
Planned Altitude: 39,000ft
Origin Wx: PHNL 261353Z 33004KT 10SM FEW028 22/19 A3003 RMK AO2 SLP167 T02220189
Dest. Wx: PANC 261353Z 12003KT 10SM BKN044 BKN060 07/03 A3006 RMK AO2 SLP178 T00670033
Notes: OPERATED FOR GRIZZLY AIR CARGO

Financial History
Total Freight: 0lbs
Average Load: 0lbs/flt
Fuel Used: 0lbs
Avg. Fuel Used: 0lbs/flt
Fuel Expense: $0
Avg. Fuel Expense: $0
Avg. Fuel Cost: $0/lbs
Total Gross Income: $0
Pilot Pay: $0
Total Expenses: $0
Total Revenue: $0
Average Revenue: $0